Avondale, Kentucky
Current Conditions -  °F | °C
As of 3:53 PM on Tuesday 21 Oct 2014 (Local Time) from KPAH Reporting Station
Clear Clear  
Wind Chill: 70°   Ceiling: Unl
Heat Index: 70°   Visibility: 10mi
Dew Point: 46°   Wind: 9mph
Humidity: 42%   Direction: 350°N
Pressure: 30.06"   Gusts: NA
Location:  37.0331°N, 88.716°W
Report Text: KPAH 212053Z AUTO 35008KT 10SM CLR 21/08 A3006 RMK AO2 SLP176 T02110078 55006
Loading
Personal Weather Stations






























Interactive Weather Map
Tropical Storm Tracking
New forecast layout! Learn more

10-Day Weather Forecast

Advertisements
Track Severe Weather on mobile